createdAt,value
2022-10-28T00:00:31.896Z,5.37
2022-10-28T00:04:35.107Z,6.53
2022-10-28T00:08:36.611Z,6.00
2022-10-28T00:12:38.237Z,5.90
2022-10-28T00:16:40.640Z,5.70
2022-10-28T00:20:43.476Z,6.37
2022-10-28T00:24:45.003Z,5.53
2022-10-28T00:28:48.259Z,5.03
2022-10-28T00:32:49.928Z,5.67
2022-10-28T00:36:52.924Z,4.80
2022-10-28T00:40:54.352Z,4.70
2022-10-28T00:44:58.399Z,4.63
2022-10-28T00:49:04.171Z,5.00
2022-10-28T00:53:14.064Z,4.70
2022-10-28T00:57:18.812Z,6.83
2022-10-28T01:01:20.284Z,7.27
2022-10-28T01:05:27.622Z,5.67
2022-10-28T01:09:30.408Z,7.97
2022-10-28T01:13:43.727Z,10.00
2022-10-28T01:17:54.951Z,13.53
2022-10-28T01:22:13.236Z,14.60
2022-10-28T01:26:38.919Z,7.83
2022-10-28T01:31:10.422Z,8.67
2022-10-28T01:35:18.938Z,8.73
2022-10-28T01:39:29.115Z,4.80
2022-10-28T01:43:36.300Z,6.03
2022-10-28T01:47:47.140Z,5.17
2022-10-28T01:51:53.687Z,4.90
2022-10-28T01:55:59.215Z,5.50
2022-10-28T02:00:02.034Z,5.03
2022-10-28T02:04:08.083Z,5.50
2022-10-28T02:08:27.851Z,7.90
2022-10-28T02:12:31.880Z,13.93
2022-10-28T02:16:43.688Z,12.67
2022-10-28T02:20:52.791Z,9.93
2022-10-28T02:25:01.171Z,5.60
2022-10-28T02:29:07.581Z,4.80
2022-10-28T02:33:12.664Z,5.47
2022-10-28T02:37:20.851Z,4.57
2022-10-28T02:41:26.796Z,6.60
2022-10-28T02:45:34.564Z,4.60
2022-10-28T02:49:42.133Z,8.17
2022-10-28T02:53:55.427Z,9.83
2022-10-28T02:57:57.363Z,17.07
2022-10-28T03:01:59.108Z,11.90
2022-10-28T03:06:00.832Z,15.37
2022-10-28T03:10:04.163Z,15.17
2022-10-28T03:14:10.669Z,8.17
2022-10-28T03:18:14.651Z,8.43
2022-10-28T03:22:16.311Z,8.07
2022-10-28T03:26:19.055Z,9.50
2022-10-28T03:30:20.695Z,7.93
2022-10-28T03:34:22.171Z,7.87
2022-10-28T03:38:23.699Z,5.57
2022-10-28T03:42:26.475Z,5.30
2022-10-28T03:46:29.134Z,7.13
2022-10-28T03:50:32.687Z,7.50
2022-10-28T03:54:34.072Z,5.47
2022-10-28T03:58:40.895Z,5.90
2022-10-28T04:02:42.771Z,5.30
2022-10-28T04:06:44.196Z,5.03
2022-10-28T04:10:47.633Z,4.90
2022-10-28T04:14:50.687Z,5.27
2022-10-28T04:18:52.265Z,4.83
2022-10-28T04:22:56.229Z,5.63
2022-10-28T04:26:58.711Z,5.23
2022-10-28T04:31:01.655Z,5.27
2022-10-28T04:35:03.561Z,4.93
2022-10-28T04:39:05.117Z,5.40
2022-10-28T04:43:08.582Z,6.27
2022-10-28T04:47:13.139Z,5.10
2022-10-28T04:51:14.689Z,5.57
2022-10-28T04:55:16.424Z,6.53
2022-10-28T04:59:17.824Z,7.23
2022-10-28T05:03:20.628Z,7.17
2022-10-28T05:07:23.561Z,8.17
2022-10-28T05:11:25.167Z,7.00
2022-10-28T05:15:26.583Z,5.67
2022-10-28T05:19:29.339Z,6.10
2022-10-28T05:23:31.101Z,5.63
2022-10-28T05:27:33.655Z,5.40
2022-10-28T05:31:35.051Z,5.80
2022-10-28T05:35:37.993Z,5.47
2022-10-28T05:39:39.408Z,5.53
2022-10-28T05:43:40.823Z,5.60
2022-10-28T05:47:42.997Z,5.33
2022-10-28T05:51:46.124Z,5.60
2022-10-28T05:55:48.018Z,5.93
2022-10-28T05:59:52.228Z,6.33
2022-10-28T06:03:53.670Z,5.67
2022-10-28T06:07:56.497Z,9.60
2022-10-28T06:11:56.394Z,9.10
2022-10-28T06:15:57.973Z,10.10
2022-10-28T06:19:59.461Z,10.30
2022-10-28T06:24:02.472Z,8.33
2022-10-28T06:28:06.972Z,5.70
2022-10-28T06:32:11.834Z,5.93
2022-10-28T06:36:13.210Z,5.70
2022-10-28T06:40:16.112Z,7.10
2022-10-28T06:44:17.524Z,7.43
2022-10-28T06:48:20.845Z,7.63
2022-10-28T06:52:22.219Z,6.70
2022-10-28T06:56:25.160Z,4.63
2022-10-28T07:00:27.425Z,4.53
2022-10-28T07:04:29.376Z,4.40
2022-10-28T07:08:32.365Z,4.87
2022-10-28T07:12:35.245Z,6.23
2022-10-28T07:16:36.934Z,7.50
2022-10-28T07:20:40.757Z,7.33
2022-10-28T07:24:42.160Z,6.70
2022-10-28T07:28:45.177Z,5.50
2022-10-28T07:32:46.825Z,5.03
2022-10-28T07:36:49.471Z,5.00
2022-10-28T07:40:51.061Z,4.23
2022-10-28T07:44:53.960Z,4.40
2022-10-28T07:48:55.325Z,4.60
2022-10-28T07:52:57.268Z,4.67
2022-10-28T07:56:58.931Z,4.67
2022-10-28T08:01:04.818Z,4.60
2022-10-28T08:05:07.198Z,5.13
2022-10-28T08:09:08.652Z,5.17
2022-10-28T08:13:10.026Z,5.00
2022-10-28T08:17:13.012Z,5.00
2022-10-28T08:21:15.385Z,4.90
2022-10-28T08:25:16.936Z,4.87
2022-10-28T08:29:18.560Z,4.77
2022-10-28T08:33:21.503Z,4.97
2022-10-28T08:37:23.232Z,4.27
2022-10-28T08:41:32.967Z,4.43
2022-10-28T08:45:44.431Z,4.30
2022-10-28T08:49:52.215Z,4.80
2022-10-28T08:53:57.010Z,4.50
2022-10-28T08:58:06.572Z,4.77
2022-10-28T09:02:19.743Z,4.63
2022-10-28T09:06:22.692Z,4.50
2022-10-28T09:10:52.342Z,5.07
2022-10-28T09:15:18.199Z,5.00
2022-10-28T09:19:33.969Z,4.73
2022-10-28T09:23:45.381Z,5.00
2022-10-28T09:27:58.030Z,4.07
2022-10-28T09:32:11.180Z,4.73
2022-10-28T09:36:18.240Z,4.70
2022-10-28T09:40:24.110Z,5.13
2022-10-28T09:44:32.508Z,4.57
2022-10-28T09:48:37.806Z,5.00
2022-10-28T09:52:50.794Z,8.03
2022-10-28T09:56:53.948Z,8.73
2022-10-28T10:00:55.447Z,11.40
2022-10-28T10:04:58.613Z,12.87
2022-10-28T10:09:00.928Z,11.50
2022-10-28T10:13:06.116Z,4.90
2022-10-28T10:17:15.029Z,4.83
2022-10-28T10:21:16.623Z,4.53
2022-10-28T10:25:27.926Z,4.40
2022-10-28T10:29:30.962Z,4.30
2022-10-28T10:33:35.687Z,3.90
2022-10-28T10:37:42.569Z,3.50
2022-10-28T10:41:45.131Z,3.77
2022-10-28T10:45:52.133Z,3.87
2022-10-28T10:50:19.131Z,4.07
2022-10-28T10:54:20.825Z,3.77
2022-10-28T10:58:24.938Z,3.40
2022-10-28T11:02:32.318Z,3.53
2022-10-28T11:06:38.743Z,3.90
2022-10-28T11:10:40.828Z,3.80
2022-10-28T11:14:55.960Z,3.50
2022-10-28T11:19:12.996Z,3.67
2022-10-28T11:23:36.778Z,3.25
2022-10-28T11:27:56.316Z,3.60
2022-10-28T11:32:12.849Z,3.80
2022-10-28T11:36:23.214Z,3.80
2022-10-28T11:40:33.522Z,3.23
2022-10-28T11:44:45.174Z,3.47
2022-10-28T11:49:06.541Z,3.83
2022-10-28T11:53:36.618Z,3.67
2022-10-28T11:57:53.795Z,3.97
2022-10-28T12:02:09.771Z,3.73
2022-10-28T12:06:17.899Z,3.75
2022-10-28T12:10:42.867Z,3.67
2022-10-28T12:14:53.744Z,3.47
2022-10-28T12:19:00.045Z,3.90
2022-10-28T12:23:06.594Z,3.47
2022-10-28T12:27:17.077Z,3.47
2022-10-28T12:31:24.045Z,3.63
2022-10-28T12:35:30.508Z,3.08
2022-10-28T12:39:34.840Z,3.42
2022-10-28T12:43:42.337Z,3.80
2022-10-28T12:47:51.153Z,3.75
2022-10-28T12:51:53.014Z,3.38
2022-10-28T12:55:58.710Z,3.72
2022-10-28T13:00:10.732Z,3.97
2022-10-28T13:04:13.062Z,3.73
2022-10-28T13:08:35.580Z,3.70
2022-10-28T13:12:53.023Z,4.00
2022-10-28T13:17:20.222Z,3.73
2022-10-28T13:21:31.997Z,3.47
2022-10-28T13:25:59.089Z,3.60
2022-10-28T13:30:01.102Z,3.53
2022-10-28T13:34:04.471Z,3.50
2022-10-28T13:38:11.682Z,3.87
2022-10-28T13:42:44.261Z,3.60
2022-10-28T13:47:26.461Z,3.67
2022-10-28T13:51:44.684Z,3.73
2022-10-28T13:55:46.571Z,3.63
2022-10-28T13:59:52.421Z,3.40
2022-10-28T14:03:53.902Z,3.53
2022-10-28T14:07:59.969Z,3.80
2022-10-28T14:12:13.086Z,3.70
2022-10-28T14:16:24.799Z,3.63
2022-10-28T14:20:33.390Z,3.40
2022-10-28T14:24:37.996Z,3.67
2022-10-28T14:28:50.519Z,3.13
2022-10-28T14:33:19.381Z,3.80
2022-10-28T14:37:49.968Z,4.33
2022-10-28T14:42:04.512Z,4.27
2022-10-28T14:46:18.815Z,4.87
2022-10-28T14:50:22.279Z,3.67
2022-10-28T14:54:36.547Z,3.90
2022-10-28T14:58:44.552Z,3.77
2022-10-28T15:02:46.903Z,3.53
2022-10-28T15:06:50.694Z,4.10
2022-10-28T15:10:52.334Z,4.00
2022-10-28T15:14:56.567Z,3.93
2022-10-28T15:18:57.959Z,4.40
2022-10-28T15:23:12.489Z,3.93
2022-10-28T15:27:14.930Z,3.70
2022-10-28T15:31:17.863Z,3.87
2022-10-28T15:35:39.126Z,3.27
2022-10-28T15:39:40.561Z,3.70
2022-10-28T15:43:54.176Z,3.77
2022-10-28T15:47:59.287Z,4.30
2022-10-28T15:52:21.126Z,3.80
2022-10-28T15:56:24.427Z,4.33
2022-10-28T16:00:28.368Z,3.83
2022-10-28T16:04:43.526Z,3.90
2022-10-28T16:08:45.313Z,4.10
2022-10-28T16:12:46.898Z,4.90
2022-10-28T16:16:48.309Z,4.60
2022-10-28T16:20:51.921Z,4.73
2022-10-28T16:24:54.553Z,4.03
2022-10-28T16:28:56.294Z,4.40
2022-10-28T16:32:57.849Z,4.33
2022-10-28T16:37:00.876Z,4.23
2022-10-28T16:41:03.893Z,4.50
2022-10-28T16:45:06.295Z,4.07
2022-10-28T16:49:07.860Z,3.87
2022-10-28T16:53:13.130Z,5.40
2022-10-28T16:57:15.266Z,4.50
2022-10-28T17:01:20.536Z,4.90
2022-10-28T17:05:23.492Z,5.37
2022-10-28T17:09:26.441Z,4.87
2022-10-28T17:13:27.832Z,4.50
2022-10-28T17:17:29.684Z,4.40
2022-10-28T17:21:31.060Z,4.37
2022-10-28T17:25:33.896Z,4.70
2022-10-28T17:29:35.513Z,4.80
2022-10-28T17:33:36.990Z,4.50
2022-10-28T17:37:38.618Z,4.60
2022-10-28T17:41:41.374Z,4.67
2022-10-28T17:45:42.791Z,4.80
2022-10-28T17:49:44.279Z,4.63
2022-10-28T17:53:45.698Z,4.67
2022-10-28T17:57:48.466Z,4.03
2022-10-28T18:01:49.980Z,5.00
2022-10-28T18:05:51.652Z,4.97
2022-10-28T18:09:53.181Z,4.73
2022-10-28T18:13:56.011Z,4.70
2022-10-28T18:17:57.459Z,4.70
2022-10-28T18:21:59.031Z,4.63
2022-10-28T18:26:02.671Z,5.30
2022-10-28T18:30:09.274Z,5.33
2022-10-28T18:34:10.975Z,5.13
2022-10-28T18:38:13.388Z,4.77
2022-10-28T18:42:17.880Z,4.83
2022-10-28T18:46:25.252Z,4.37
2022-10-28T18:50:26.841Z,5.10
2022-10-28T18:54:28.221Z,4.83
2022-10-28T18:58:29.740Z,4.83
2022-10-28T19:02:32.635Z,5.07
2022-10-28T19:06:34.412Z,5.33
2022-10-28T19:10:35.820Z,4.80
2022-10-28T19:14:37.389Z,4.30
2022-10-28T19:18:40.424Z,5.47
2022-10-28T19:22:42.073Z,4.50
2022-10-28T19:26:43.653Z,4.30
2022-10-28T19:30:45.065Z,5.60
2022-10-28T19:34:47.813Z,4.93
2022-10-28T19:38:51.059Z,5.10
2022-10-28T19:46:59.633Z,4.63
2022-10-28T19:51:02.917Z,5.17
2022-10-28T19:55:05.117Z,5.40
2022-10-28T19:59:07.183Z,4.63
2022-10-28T20:03:08.625Z,4.50
2022-10-28T20:07:11.521Z,4.50
2022-10-28T20:11:15.591Z,4.93
2022-10-28T20:15:17.148Z,4.70
2022-10-28T20:19:18.685Z,4.97
2022-10-28T20:23:21.609Z,5.23
2022-10-28T20:27:23.285Z,5.00
2022-10-28T20:31:26.403Z,4.87
2022-10-28T20:35:27.938Z,4.87
2022-10-28T20:39:30.727Z,5.13
2022-10-28T20:43:32.272Z,5.23
2022-10-28T20:47:33.707Z,4.77
2022-10-28T20:51:35.474Z,4.90
2022-10-28T20:55:44.745Z,4.47
2022-10-28T20:59:46.285Z,4.43
2022-10-28T21:03:49.067Z,4.97
2022-10-28T21:07:50.616Z,4.70
2022-10-28T21:11:53.387Z,5.00
2022-10-28T21:15:57.627Z,4.57
2022-10-28T21:24:06.602Z,4.87
2022-10-28T21:28:09.486Z,4.67
2022-10-28T21:32:10.937Z,5.10
2022-10-28T21:36:14.754Z,4.30
2022-10-28T21:40:16.317Z,5.20
2022-10-28T21:44:19.250Z,5.13
2022-10-28T21:48:20.685Z,4.47
2022-10-28T21:52:22.336Z,4.60
2022-10-28T21:56:23.905Z,5.07
2022-10-28T22:00:26.642Z,5.20
2022-10-28T22:04:28.198Z,5.43
2022-10-28T22:08:29.994Z,4.63
2022-10-28T22:12:31.378Z,4.27
2022-10-28T22:16:35.658Z,4.70
2022-10-28T22:20:42.168Z,4.47
2022-10-28T22:24:45.913Z,4.37
2022-10-28T22:28:48.230Z,4.87
2022-10-28T22:32:50.957Z,4.57
2022-10-28T22:36:52.586Z,4.77
2022-10-28T22:41:04.336Z,4.43
2022-10-28T22:45:07.097Z,4.67
2022-10-28T22:49:10.272Z,5.07
2022-10-28T22:53:11.736Z,4.27
2022-10-28T22:57:13.301Z,4.50
2022-10-28T23:01:17.660Z,4.77
2022-10-28T23:05:20.608Z,4.30
2022-10-28T23:09:22.045Z,5.00
2022-10-28T23:13:23.654Z,4.90
2022-10-28T23:17:28.328Z,5.10
2022-10-28T23:21:31.060Z,5.53
2022-10-28T23:25:32.674Z,5.00
2022-10-28T23:29:34.081Z,5.20
2022-10-28T23:33:35.825Z,5.10
2022-10-28T23:37:38.676Z,5.00
2022-10-28T23:41:40.040Z,5.37
2022-10-28T23:45:41.484Z,5.80
2022-10-28T23:49:43.297Z,5.37
2022-10-28T23:53:46.485Z,5.17
2022-10-28T23:57:50.109Z,5.50
